Airport View

Enter AWOS ICAO identifier for current METAR.

ex. KFNL

KHLC 261153Z AUTO 21010KT 9SM CLR 21/18 A2999 RMK AO2 SLP127 T02060183 10233 20206 53000

26 Jun 2019 12:38

Frequency: 118.425

Phone: 785-421-3471

Other Area AWOS: KRCP - KHYS - KOIN - KCBK

TAF KHYS 261120Z 2612/2712 17010KT P6SM FEW250 FM261500 18015G25KT P6SM SCT250 FM270800 18012KT P6SM FEW250